Time;durP1;ratioP1;P1;durP2;ratioP2;P2;SDS_P1;SDS_P2;PMS_P1;PMS_P2;Temp;Humidity;BMP_temperature;BMP_pressure;BME280_temperature;BME280_humidity;BME280_pressure;Samples;Min_cycle;Max_cycle;Signal;HPM_P1;HPM_P2
2021/03/09 00:01:15;;;;;;;248.05;86.42;;;;;;;-4.17;63.40;101229.27;1798658;79;21123;-69
2021/03/09 00:03:42;;;;;;;225.28;79.87;;;;;;;-4.19;63.46;101231.95;1798500;79;21580;-69
2021/03/09 00:06:08;;;;;;;236.03;81.95;;;;;;;-4.26;63.57;101227.88;1798601;79;21163;-68
2021/03/09 00:08:36;;;;;;;216.42;77.25;;;;;;;-4.31;63.63;101230.23;1781923;79;21190;-68
2021/03/09 00:11:02;;;;;;;221.85;82.08;;;;;;;-4.31;63.72;101222.42;1766814;81;21166;-68
2021/03/09 00:13:28;;;;;;;207.72;75.12;;;;;;;-4.32;63.78;101231.13;1766376;81;21129;-68
2021/03/09 00:15:54;;;;;;;223.82;76.70;;;;;;;-4.33;63.88;101225.09;1766849;81;21142;-68
2021/03/09 00:18:22;;;;;;;213.47;73.87;;;;;;;-4.35;63.95;101219.08;1767007;81;21186;-68
2021/03/09 00:20:48;;;;;;;225.70;78.02;;;;;;;-4.33;64.03;101226.84;1766547;81;21202;-68
2021/03/09 00:23:14;;;;;;;229.40;78.20;;;;;;;-4.30;64.04;101226.73;1790403;79;21565;-68
2021/03/09 00:25:41;;;;;;;223.10;74.10;;;;;;;-4.32;64.13;101227.22;1763413;81;21135;-70
2021/03/09 00:28:07;;;;;;;217.05;78.33;;;;;;;-4.37;64.19;101230.46;1798638;79;21175;-70
2021/03/09 00:30:33;;;;;;;214.95;73.87;;;;;;;-4.42;64.27;101224.55;1797705;79;21526;-68
2021/03/09 00:32:59;;;;;;;229.72;78.40;;;;;;;-4.43;64.35;101226.78;1769517;79;21477;-69
2021/03/09 00:35:26;;;;;;;221.60;74.07;;;;;;;-4.44;64.41;101230.28;1779329;79;21641;-68
2021/03/09 00:37:52;;;;;;;266.40;91.25;;;;;;;-4.47;64.47;101234.30;1776075;79;21158;-68
2021/03/09 00:40:19;;;;;;;237.27;83.17;;;;;;;-4.50;64.53;101235.72;1764054;79;21156;-68
2021/03/09 00:42:45;;;;;;;266.82;89.47;;;;;;;-4.49;64.61;101234.78;1757336;81;21219;-68
2021/03/09 00:45:12;;;;;;;282.92;95.03;;;;;;;-4.45;64.66;101241.14;1757165;81;21991;-68
2021/03/09 00:47:39;;;;;;;256.75;89.10;;;;;;;-4.44;64.71;101232.88;1769017;81;21156;-68
2021/03/09 00:50:07;;;;;;;247.37;82.30;;;;;;;-4.50;64.77;101239.62;1768829;81;21704;-68
2021/03/09 00:52:34;;;;;;;217.37;72.00;;;;;;;-4.52;64.84;101231.00;1768934;81;21129;-68
2021/03/09 00:55:00;;;;;;;213.45;75.75;;;;;;;-4.52;64.92;101234.91;1740810;81;21211;-69
2021/03/09 00:57:26;;;;;;;192.55;67.37;;;;;;;-4.63;64.95;101225.72;1737472;81;21831;-68
2021/03/09 00:59:53;;;;;;;214.42;74.82;;;;;;;-4.73;65.03;101228.70;1736686;82;21152;-68
2021/03/09 01:02:19;;;;;;;227.18;74.47;;;;;;;-4.75;65.14;101224.84;1737014;82;21184;-68
2021/03/09 01:04:45;;;;;;;280.07;90.47;;;;;;;-4.68;65.18;101225.02;1736697;82;21156;-68
2021/03/09 01:07:11;;;;;;;326.42;107.85;;;;;;;-4.71;65.25;101219.93;1736902;82;21156;-68
2021/03/09 01:09:38;;;;;;;303.23;102.35;;;;;;;-4.78;65.35;101221.05;1736088;81;21240;-68
2021/03/09 01:12:05;;;;;;;271.00;88.92;;;;;;;-4.76;65.43;101217.10;1736869;82;21180;-68
2021/03/09 01:14:31;;;;;;;275.82;87.55;;;;;;;-4.75;65.48;101212.31;1737022;82;21610;-68
2021/03/09 01:16:57;;;;;;;220.82;71.02;;;;;;;-4.71;65.52;101222.53;1736738;82;21180;-68
2021/03/09 01:19:24;;;;;;;247.80;81.45;;;;;;;-4.74;65.59;101210.08;1736811;82;21145;-68
2021/03/09 01:21:50;;;;;;;225.90;76.30;;;;;;;-4.73;65.63;101212.64;1736759;82;22049;-68
2021/03/09 01:24:16;;;;;;;232.12;75.22;;;;;;;-4.81;65.68;101209.89;1741217;81;21184;-68
2021/03/09 01:26:43;;;;;;;240.10;76.95;;;;;;;-4.76;65.75;101215.36;1769037;81;21204;-68
2021/03/09 01:29:09;;;;;;;236.30;73.57;;;;;;;-4.74;65.81;101207.48;1744492;81;21735;-68
2021/03/09 01:31:36;;;;;;;235.00;73.80;;;;;;;-4.75;65.87;101210.53;1738250;82;21140;-68
2021/03/09 01:34:02;;;;;;;225.47;72.40;;;;;;;-4.77;65.93;101209.75;1738131;82;21207;-68
2021/03/09 01:36:28;;;;;;;240.00;76.77;;;;;;;-4.78;65.97;101207.19;1738292;82;21192;-68
2021/03/09 01:38:54;;;;;;;204.60;67.53;;;;;;;-4.82;66.04;101203.84;1738019;81;21151;-68
2021/03/09 01:41:21;;;;;;;219.40;75.40;;;;;;;-4.88;66.06;101198.86;1742113;81;21713;-68
2021/03/09 01:43:47;;;;;;;218.30;69.42;;;;;;;-4.88;66.14;101196.27;1744787;82;21160;-68
2021/03/09 01:46:13;;;;;;;263.85;79.62;;;;;;;-4.88;66.16;101193.66;1779997;80;22215;-68
2021/03/09 01:48:44;;;;;;;234.37;73.50;;;;;;;-4.93;66.24;101194.73;1744746;82;21176;-68
2021/03/09 01:51:17;;;;;;;253.32;78.00;;;;;;;-4.92;66.33;101194.66;1778643;79;21231;-68
2021/03/09 01:53:43;;;;;;;238.70;73.80;;;;;;;-4.95;66.40;101188.27;1747799;82;21168;-68
2021/03/09 01:56:10;;;;;;;221.18;72.70;;;;;;;-4.95;66.45;101189.57;1758281;81;21129;-68
2021/03/09 01:58:42;;;;;;;213.47;70.03;;;;;;;-4.97;66.51;101186.19;1760710;80;21216;-68
2021/03/09 02:01:09;;;;;;;252.18;80.55;;;;;;;-4.92;66.57;101180.80;1760317;81;21652;-68
2021/03/09 02:03:35;;;;;;;237.72;73.87;;;;;;;-4.86;66.59;101181.47;1755071;80;21163;-68
2021/03/09 02:06:01;;;;;;;247.40;83.33;;;;;;;-4.82;66.61;101182.21;1747518;82;21116;-67
2021/03/09 02:08:28;;;;;;;239.90;74.07;;;;;;;-4.84;66.67;101173.15;1747739;82;21124;-67
2021/03/09 02:10:56;;;;;;;227.10;75.03;;;;;;;-4.90;66.72;101174.67;1749508;80;22079;-68
2021/03/09 02:13:52;;;;;;;206.55;66.72;;;;;;;-4.92;66.77;101168.66;1747425;80;21227;-68
2021/03/09 02:16:31;;;;;;;216.00;70.83;;;;;;;-4.90;66.82;101174.67;1702946;82;21158;-68
2021/03/09 02:19:07;;;;;;;191.47;63.50;;;;;;;-4.92;66.87;101169.95;1780673;80;21176;-68
2021/03/09 02:22:00;;;;;;;208.57;69.58;;;;;;;-4.91;66.95;101167.77;1748144;82;21192;-68
2021/03/09 02:25:04;;;;;;;204.75;65.83;;;;;;;-4.87;66.98;101171.10;1747623;81;21264;-67
2021/03/09 02:27:39;;;;;;;197.28;64.00;;;;;;;-4.93;67.02;101163.08;1756939;80;21606;-68
2021/03/09 02:30:22;;;;;;;181.32;61.37;;;;;;;-4.92;67.09;101167.80;1748076;82;21172;-68
2021/03/09 02:33:12;;;;;;;183.40;61.25;;;;;;;-4.93;67.14;101161.78;1771500;80;21118;-68
2021/03/09 02:35:48;;;;;;;175.53;59.70;;;;;;;-4.90;67.16;101162.97;1755564;80;21156;-69
2021/03/09 02:38:16;;;;;;;240.70;72.95;;;;;;;-4.93;67.23;101163.08;1754832;81;21168;-69
2021/03/09 02:40:42;;;;;;;198.87;64.12;;;;;;;-4.88;67.27;101165.05;1754693;81;21155;-69
2021/03/09 02:43:12;;;;;;;208.07;67.78;;;;;;;-4.86;67.29;101161.96;1724767;81;21183;-69
2021/03/09 02:45:38;;;;;;;193.17;61.88;;;;;;;-4.87;67.35;101164.16;1754678;81;21163;-69
2021/03/09 02:48:06;;;;;;;196.50;63.83;;;;;;;-4.93;67.38;101164.38;1749444;81;21179;-69
2021/03/09 02:50:33;;;;;;;186.28;61.30;;;;;;;-4.96;67.42;101161.86;1754580;81;22167;-69
2021/03/09 02:53:11;;;;;;;195.45;62.48;;;;;;;-4.93;67.44;101164.38;1754315;81;21151;-69
2021/03/09 02:55:38;;;;;;;182.75;61.45;;;;;;;-4.92;67.46;101164.75;1776401;80;21247;-69
2021/03/09 02:58:06;;;;;;;195.15;64.75;;;;;;;-4.92;67.51;101164.75;1787174;80;21565;-69
2021/03/09 03:00:32;;;;;;;176.60;62.75;;;;;;;-4.95;67.54;101164.87;1787377;80;21132;-69
2021/03/09 03:03:00;;;;;;;223.72;72.00;;;;;;;-5.02;67.59;101162.08;1786318;80;21251;-69
2021/03/09 03:05:26;;;;;;;206.07;66.85;;;;;;;-5.02;67.62;101169.88;1787198;80;21159;-69
2021/03/09 03:07:52;;;;;;;216.60;68.50;;;;;;;-5.01;67.64;101160.33;1787149;80;21517;-69
2021/03/09 03:10:19;;;;;;;189.43;60.38;;;;;;;-5.04;67.68;101166.50;1787144;80;21163;-69
2021/03/09 03:12:45;;;;;;;176.57;60.55;;;;;;;-5.06;67.72;101168.28;1787197;80;21167;-69
2021/03/09 03:15:13;;;;;;;192.20;61.58;;;;;;;-5.05;67.78;101162.19;1787094;80;21261;-69
2021/03/09 03:17:41;;;;;;;201.05;67.30;;;;;;;-5.05;67.83;101165.64;1764225;80;21123;-69
2021/03/09 03:20:11;;;;;;;192.53;66.05;;;;;;;-5.09;67.86;101165.80;1756077;81;21146;-69
2021/03/09 03:22:39;;;;;;;197.47;67.82;;;;;;;-5.10;67.91;101162.34;1755805;81;21806;-69
2021/03/09 03:25:07;;;;;;;191.35;61.83;;;;;;;-5.09;67.92;101159.30;1726432;81;21580;-69
2021/03/09 03:27:35;;;;;;;203.95;68.45;;;;;;;-5.06;67.97;101157.88;1756043;81;22059;-69
2021/03/09 03:30:03;;;;;;;189.45;61.80;;;;;;;-5.11;68.00;101153.31;1755986;81;21627;-69
2021/03/09 03:32:29;;;;;;;206.10;67.10;;;;;;;-5.13;68.04;101153.80;1756072;81;21115;-69
2021/03/09 03:34:56;;;;;;;181.60;61.70;;;;;;;-5.11;68.07;101152.02;1756098;81;21504;-69
2021/03/09 03:37:22;;;;;;;193.43;65.37;;;;;;;-5.09;68.07;101151.49;1696048;81;21111;-69
2021/03/09 03:39:48;;;;;;;184.72;63.60;;;;;;;-5.11;68.13;101145.52;1750719;80;22107;-69
2021/03/09 03:42:16;;;;;;;190.80;62.40;;;;;;;-5.11;68.17;101148.11;1747747;81;21196;-69
2021/03/09 03:44:42;;;;;;;181.52;62.65;;;;;;;-5.21;68.18;101151.93;1702654;82;21120;-69
2021/03/09 03:47:08;;;;;;;201.37;66.20;;;;;;;-5.26;68.26;101144.73;1747622;82;21220;-69
2021/03/09 03:49:35;;;;;;;172.53;61.68;;;;;;;-5.28;68.30;101145.24;1747821;81;21121;-69
2021/03/09 03:52:21;;;;;;;183.95;62.23;;;;;;;-5.24;68.33;101149.44;1748052;80;22518;-69
2021/03/09 03:55:11;;;;;;;171.10;59.20;;;;;;;-5.24;68.38;101146.36;1787264;80;21156;-69
2021/03/09 03:57:47;;;;;;;181.25;67.70;;;;;;;-5.24;68.41;101150.73;1786978;80;21179;-69
2021/03/09 04:00:16;;;;;;;188.87;64.15;;;;;;;-5.28;68.46;101147.39;1787126;80;21216;-69
2021/03/09 04:02:46;;;;;;;187.62;69.53;;;;;;;-5.31;68.52;101146.65;1787193;80;21100;-69
2021/03/09 04:05:13;;;;;;;182.43;65.47;;;;;;;-5.32;68.56;101143.20;1766117;80;22133;-69
2021/03/09 04:07:39;;;;;;;193.62;66.40;;;;;;;-5.30;68.61;101138.78;1756127;81;21150;-69
2021/03/09 04:10:07;;;;;;;177.02;63.15;;;;;;;-5.30;68.64;101143.98;1755784;81;21110;-69
2021/03/09 04:12:34;;;;;;;203.22;70.70;;;;;;;-5.30;68.65;101139.23;1756235;81;21604;-69
2021/03/09 04:15:00;;;;;;;170.12;58.87;;;;;;;-5.32;68.68;101134.55;1755986;81;21098;-69
2021/03/09 04:17:27;;;;;;;189.60;67.27;;;;;;;-5.30;68.72;101137.48;1756134;80;21914;-69
2021/03/09 04:19:56;;;;;;;164.18;62.00;;;;;;;-5.30;68.75;101136.19;1755694;81;21219;-70
2021/03/09 04:22:25;;;;;;;176.35;63.68;;;;;;;-5.31;68.79;101137.08;1756386;81;21589;-69
2021/03/09 04:24:52;;;;;;;183.05;62.67;;;;;;;-5.32;68.79;101139.74;1756332;81;27178;-70
2021/03/09 04:27:22;;;;;;;176.02;62.50;;;;;;;-5.31;68.84;101140.16;1756229;81;21195;-70
2021/03/09 04:29:52;;;;;;;;;;;;;;;-5.34;68.86;101137.63;1759001;81;22061;-69
2021/03/09 04:32:19;;;;;;;156.02;57.15;;;;;;;-5.35;68.92;101139.85;1756008;81;20453;-68
2021/03/09 04:34:46;;;;;;;149.70;52.85;;;;;;;-5.38;68.99;101134.77;1756141;81;21627;-68
2021/03/09 04:37:13;;;;;;;168.25;54.00;;;;;;;-5.39;69.02;101140.85;1726258;81;21139;-68
2021/03/09 04:39:41;;;;;;;158.55;51.63;;;;;;;-5.41;69.04;101136.13;1756174;81;21161;-68
2021/03/09 04:42:08;;;;;;;171.15;55.65;;;;;;;-5.47;69.04;101142.84;1756473;80;21200;-69
2021/03/09 04:44:34;;;;;;;155.87;52.27;;;;;;;-5.52;69.05;101139.57;1750455;80;21557;-68
2021/03/09 04:47:01;;;;;;;166.07;56.25;;;;;;;-5.52;69.09;101133.07;1777465;80;21152;-68
2021/03/09 04:49:28;;;;;;;162.05;56.25;;;;;;;-5.48;69.13;101126.84;1779360;80;21197;-68
2021/03/09 04:51:54;;;;;;;164.57;61.18;;;;;;;-5.51;69.16;101128.25;1779362;80;21616;-68
2021/03/09 04:54:20;;;;;;;157.03;54.35;;;;;;;-5.49;69.19;101129.07;1779201;80;21203;-68
2021/03/09 04:56:47;;;;;;;176.95;58.68;;;;;;;-5.50;69.21;101127.36;1779463;80;21172;-68
2021/03/09 04:59:13;;;;;;;169.02;59.35;;;;;;;-5.58;69.21;101123.27;1779302;80;21573;-68
2021/03/09 05:01:39;;;;;;;196.95;62.80;;;;;;;-5.60;69.22;101127.68;1778966;80;21219;-68
2021/03/09 05:04:05;;;;;;;178.38;59.67;;;;;;;-5.59;69.27;101126.76;1778561;80;21148;-68
2021/03/09 05:06:32;;;;;;;254.13;77.78;;;;;;;-5.57;69.32;101124.98;1779362;80;21258;-69
2021/03/09 05:08:58;;;;;;;352.87;98.55;;;;;;;-5.60;69.36;101127.68;1779351;80;21212;-68
2021/03/09 05:11:24;;;;;;;335.60;93.87;;;;;;;-5.62;69.43;101124.27;1778919;80;21125;-68
2021/03/09 05:13:50;;;;;;;290.00;86.00;;;;;;;-5.66;69.49;101125.26;1779101;80;21192;-68
2021/03/09 05:16:17;;;;;;;286.67;80.75;;;;;;;-5.63;69.52;101135.55;1779221;80;21593;-69
2021/03/09 05:18:43;;;;;;;278.65;80.77;;;;;;;-5.62;69.54;101131.20;1779194;80;21183;-69
2021/03/09 05:21:09;;;;;;;246.82;78.30;;;;;;;-5.65;69.58;101139.10;1779338;80;21151;-68
2021/03/09 05:23:36;;;;;;;225.07;65.40;;;;;;;-5.62;69.61;101142.45;1779244;80;21565;-69
2021/03/09 05:26:02;;;;;;;220.25;67.00;;;;;;;-5.55;69.63;101134.85;1779494;80;21128;-69
2021/03/09 05:28:29;;;;;;;187.45;59.40;;;;;;;-5.53;69.65;101141.31;1763584;80;21138;-69
2021/03/09 05:30:56;;;;;;;183.75;57.30;;;;;;;-5.51;69.68;101142.54;1748310;82;21209;-68
2021/03/09 05:33:22;;;;;;;170.00;54.48;;;;;;;-5.50;69.72;101142.95;1748658;80;21135;-68
2021/03/09 05:35:48;;;;;;;174.18;55.63;;;;;;;-5.50;69.74;101148.15;1748288;82;21647;-68
2021/03/09 05:38:15;;;;;;;145.12;50.33;;;;;;;-5.48;69.76;101146.33;1748501;82;21135;-69
2021/03/09 05:40:41;;;;;;;176.15;55.50;;;;;;;-5.51;69.78;101146.44;1748559;82;21116;-69
2021/03/09 05:43:07;;;;;;;173.85;53.75;;;;;;;-5.47;69.81;101145.00;1748460;80;21272;-69
2021/03/09 05:45:34;;;;;;;159.97;51.33;;;;;;;-5.38;69.83;101146.45;1748267;82;21151;-69
2021/03/09 05:48:00;;;;;;;145.57;47.88;;;;;;;-5.35;69.87;101145.05;1748317;81;21195;-68
2021/03/09 05:50:26;;;;;;;170.20;52.98;;;;;;;-5.30;69.88;101149.17;1750466;80;21159;-68
2021/03/09 05:52:53;;;;;;;153.42;48.90;;;;;;;-5.30;69.86;101147.02;1775405;80;21630;-68
2021/03/09 05:55:19;;;;;;;150.03;50.58;;;;;;;-5.27;69.91;101146.91;1754033;81;21199;-69
2021/03/09 05:57:45;;;;;;;147.22;46.88;;;;;;;-5.18;69.91;101149.22;1763416;80;21609;-69
2021/03/09 06:00:13;;;;;;;147.82;49.33;;;;;;;-5.07;69.96;101150.53;1760573;80;21195;-69
2021/03/09 06:02:40;;;;;;;136.45;43.17;;;;;;;-4.95;69.99;101151.02;1760099;80;21135;-69
2021/03/09 06:05:08;;;;;;;128.18;44.67;;;;;;;-4.88;70.00;101150.75;1784393;80;21657;-69
2021/03/09 06:07:35;;;;;;;122.42;41.70;;;;;;;-4.81;70.03;101145.72;1787553;79;21201;-69
2021/03/09 06:10:03;;;;;;;127.95;43.92;;;;;;;-4.67;70.05;101143.47;1779841;80;21146;-69
2021/03/09 06:12:29;;;;;;;122.25;41.80;;;;;;;-4.52;70.09;101142.07;1755854;80;21219;-68
2021/03/09 06:15:01;;;;;;;126.07;44.77;;;;;;;-4.19;70.09;101140.81;1754734;81;21128;-68
2021/03/09 06:17:39;;;;;;;132.45;45.12;;;;;;;-3.77;69.93;101144.80;1754844;81;21171;-68
2021/03/09 06:20:10;;;;;;;122.53;45.70;;;;;;;-3.57;69.87;101148.75;1754571;81;22162;-69
2021/03/09 06:22:39;;;;;;;131.18;51.33;;;;;;;-3.40;69.90;101139.38;1747436;80;21175;-69
2021/03/09 06:25:08;;;;;;;162.30;57.05;;;;;;;-3.20;69.92;101151.15;1756814;80;21111;-69
2021/03/09 06:27:35;;;;;;;189.87;72.73;;;;;;;-2.94;69.92;101152.63;1755017;81;21609;-69
2021/03/09 06:30:04;;;;;;;197.05;70.52;;;;;;;-2.81;69.91;101155.94;1754751;81;21183;-69
2021/03/09 06:32:44;;;;;;;186.28;63.35;;;;;;;-2.75;69.94;101155.69;1754748;81;22183;-70
2021/03/09 06:35:29;;;;;;;;;;;;;;;-2.66;69.92;101159.19;1757451;81;21711;-70
2021/03/09 06:38:30;;;;;;;196.18;68.65;;;;;;;-2.58;69.91;101151.87;1741323;81;20261;-68
2021/03/09 06:41:16;;;;;;;239.17;84.83;;;;;;;-2.46;69.96;101161.38;1754389;81;21243;-67
2021/03/09 06:43:48;;;;;;;250.40;94.77;;;;;;;-2.31;69.96;101160.67;1757841;81;21219;-68
2021/03/09 06:46:21;;;;;;;329.85;120.08;;;;;;;-2.06;69.85;101165.16;1757803;81;21212;-70
2021/03/09 06:48:50;;;;;;;351.85;137.68;;;;;;;-1.75;69.78;101166.72;1734392;82;21604;-70
2021/03/09 06:51:29;;;;;;;286.60;118.55;;;;;;;-1.49;69.73;101162.00;1734376;82;21186;-71
2021/03/09 06:54:04;;;;;;;220.22;86.00;;;;;;;-1.33;69.75;101160.31;1734454;82;21601;-70
2021/03/09 06:56:30;;;;;;;245.12;96.57;;;;;;;-1.18;69.74;101164.34;1724052;83;21226;-70
2021/03/09 06:58:59;;;;;;;196.60;85.65;;;;;;;-1.00;69.69;101166.49;1729413;83;22123;-70
2021/03/09 07:01:25;;;;;;;202.10;82.08;;;;;;;-0.86;69.55;101161.40;1644114;85;21179;-68
2021/03/09 07:03:52;;;;;;;203.45;88.72;;;;;;;-0.70;69.46;101159.67;1709407;83;21747;-68
2021/03/09 07:06:18;;;;;;;180.82;79.22;;;;;;;-0.58;69.42;101165.59;1709693;83;21210;-68
2021/03/09 07:08:44;;;;;;;180.52;79.77;;;;;;;-0.57;69.40;101163.36;1709568;83;21182;-68
2021/03/09 07:11:11;;;;;;;178.68;78.72;;;;;;;-0.63;69.37;101157.57;1680590;83;21431;-68
2021/03/09 07:13:38;;;;;;;180.82;77.70;;;;;;;-0.49;69.29;101150.33;1745896;82;21688;-69
2021/03/09 07:16:04;;;;;;;182.37;75.90;;;;;;;-0.26;69.19;101161.72;1745665;81;21121;-69
2021/03/09 07:18:31;;;;;;;179.42;72.45;;;;;;;-0.01;69.12;101166.02;1745932;82;21209;-70
2021/03/09 07:20:57;;;;;;;167.80;68.45;;;;;;;0.15;68.99;101162.92;1745977;82;21192;-70
2021/03/09 07:23:25;;;;;;;154.03;64.87;;;;;;;0.20;68.81;101167.45;1745907;82;21206;-70
2021/03/09 07:25:53;;;;;;;154.95;64.42;;;;;;;0.26;68.74;101167.56;1745819;81;21180;-70
2021/03/09 07:28:22;;;;;;;149.93;61.53;;;;;;;0.31;68.64;101165.55;1745593;82;21176;-69
2021/03/09 07:30:51;;;;;;;151.25;61.80;;;;;;;0.44;68.58;101159.52;1745072;82;21215;-70
2021/03/09 07:33:18;;;;;;;137.25;58.42;;;;;;;0.64;68.55;101165.39;1748351;81;21157;-70
2021/03/09 07:35:46;;;;;;;125.00;53.42;;;;;;;0.78;68.43;101154.48;1759595;81;21318;-69
2021/03/09 07:38:13;;;;;;;132.65;56.58;;;;;;;0.73;68.30;101160.48;1759620;81;21157;-69
2021/03/09 07:40:39;;;;;;;139.82;57.67;;;;;;;0.76;68.22;101155.52;1759779;81;21165;-69
2021/03/09 07:43:06;;;;;;;140.32;59.00;;;;;;;0.92;68.13;101163.71;1759717;81;21191;-69
2021/03/09 07:45:35;;;;;;;129.03;56.75;;;;;;;1.12;68.00;101162.55;1759723;81;21136;-69
2021/03/09 07:48:05;;;;;;;;;;;;;;;1.20;67.88;101160.75;1762672;81;22127;-70
2021/03/09 07:50:41;;;;;;;120.47;50.73;;;;;;;1.29;67.76;101158.45;1759248;80;20272;-69
2021/03/09 07:53:14;;;;;;;118.42;51.37;;;;;;;1.46;67.67;101159.58;1758266;81;21192;-69
2021/03/09 07:55:47;;;;;;;120.90;48.63;;;;;;;1.60;67.49;101156.57;1758377;81;21143;-69
2021/03/09 07:58:21;;;;;;;129.40;52.45;;;;;;;1.69;67.38;101153.39;1758370;81;21159;-70
2021/03/09 08:01:05;;;;;;;120.30;51.95;;;;;;;1.78;67.23;101151.49;1770981;80;21228;-70
2021/03/09 08:03:36;;;;;;;114.03;47.17;;;;;;;1.85;67.09;101150.17;1790443;80;21131;-70
2021/03/09 08:06:14;;;;;;;116.65;51.35;;;;;;;1.93;66.92;101145.28;1759948;81;21183;-69
2021/03/09 08:08:53;;;;;;;126.47;49.80;;;;;;;2.05;66.79;101141.86;1765248;80;21615;-70
2021/03/09 08:11:25;;;;;;;104.38;46.77;;;;;;;2.24;66.55;101150.28;1733701;81;21171;-70
2021/03/09 08:14:10;;;;;;;110.17;46.15;;;;;;;2.33;66.37;101149.67;1762056;80;21167;-70
2021/03/09 08:16:43;;;;;;;112.40;49.50;;;;;;;2.37;66.19;101143.28;1759834;81;21183;-70
2021/03/09 08:19:31;;;;;;;106.55;46.88;;;;;;;2.56;66.07;101136.81;1760113;81;21151;-70
2021/03/09 08:21:59;;;;;;;116.53;50.03;;;;;;;2.71;65.84;101140.58;1776292;80;21187;-70
2021/03/09 08:24:45;;;;;;;104.95;45.15;;;;;;;2.80;65.66;101137.83;1791068;80;21603;-70
2021/03/09 08:27:33;;;;;;;108.57;46.73;;;;;;;2.87;65.52;101139.10;1776982;80;21202;-70
2021/03/09 08:30:26;;;;;;;70.05;30.08;;;;;;;2.95;65.34;101139.44;1759989;80;21585;-70
2021/03/09 08:32:52;;;;;;;84.00;34.38;;;;;;;2.97;65.11;101132.27;1759815;80;21125;-70
2021/03/09 08:35:24;;;;;;;69.58;33.95;;;;;;;3.04;64.81;101128.27;1760053;81;21137;-70
2021/03/09 08:37:50;;;;;;;87.62;38.90;;;;;;;3.00;64.56;101132.05;1759909;81;21133;-70
2021/03/09 08:40:22;;;;;;;80.62;38.95;;;;;;;2.98;64.35;101133.96;1759997;81;21215;-70
2021/03/09 08:43:11;;;;;;;39.20;19.12;;;;;;;2.98;64.18;101133.96;1759368;81;21721;-70
2021/03/09 08:45:54;;;;;;;15.50;7.83;;;;;;;3.10;63.93;101129.16;1781101;80;23836;-68
2021/03/09 08:48:50;;;;;;;19.50;8.70;;;;;;;3.12;63.63;101128.60;1786368;80;21187;-68
2021/03/09 08:51:43;;;;;;;8.75;3.10;;;;;;;3.17;63.33;101131.75;1755310;81;21160;-68
2021/03/09 08:54:19;;;;;;;15.13;7.03;;;;;;;3.13;62.91;101122.36;1715235;82;21473;-68
2021/03/09 08:57:19;;;;;;;16.10;5.75;;;;;;;3.19;62.46;101118.02;1852084;77;22735;-68
2021/03/09 08:59:48;;;;;;;16.97;5.62;;;;;;;3.23;62.13;101124.77;1823390;78;21132;-68
2021/03/09 09:02:22;;;;;;;37.17;14.33;;;;;;;3.22;61.76;101124.39;1823962;78;21219;-68
2021/03/09 09:04:59;;;;;;;43.68;18.57;;;;;;;3.23;61.48;101122.13;1824090;78;21833;-69
2021/03/09 09:07:37;;;;;;;41.02;18.70;;;;;;;3.38;61.22;101117.09;1824171;78;21112;-69
2021/03/09 09:10:16;;;;;;;38.00;15.68;;;;;;;3.45;60.89;101112.23;1823921;78;21119;-69
2021/03/09 09:12:44;;;;;;;38.75;16.73;;;;;;;3.55;60.63;101112.45;1822417;78;21144;-71
2021/03/09 09:15:20;;;;;;;21.93;9.90;;;;;;;3.66;60.39;101106.77;1819275;78;21264;-70
2021/03/09 09:17:57;;;;;;;28.35;11.88;;;;;;;3.66;60.05;101109.91;1793470;78;21199;-73
2021/03/09 09:20:46;;;;;;;26.73;12.28;;;;;;;3.67;59.76;101097.07;1791573;80;21122;-72
2021/03/09 09:23:18;;;;;;;25.43;12.47;;;;;;;3.56;59.35;101104.89;1799461;78;21179;-71
2021/03/09 09:25:50;;;;;;;31.93;14.70;;;;;;;3.53;59.01;101099.37;1791600;80;21667;-71
2021/03/09 09:28:31;;;;;;;32.00;14.15;;;;;;;3.61;58.79;101097.52;1791548;79;21200;-71
2021/03/09 09:31:01;;;;;;;30.60;13.83;;;;;;;3.65;58.58;101101.63;1819298;78;21628;-72
2021/03/09 09:33:29;;;;;;;31.40;14.80;;;;;;;3.63;58.22;101102.19;1791564;78;21142;-72
2021/03/09 09:38:42;;;;;;;32.73;16.10;;;;;;;3.68;57.71;101100.09;1832856;77;27865;-72
2021/03/09 09:41:08;;;;;;;46.35;25.37;;;;;;;3.84;57.44;101103.30;1824315;78;21168;-72
2021/03/09 09:43:36;;;;;;;35.92;21.12;;;;;;;3.83;57.03;101102.48;1800720;78;21164;-73
2021/03/09 09:46:07;;;;;;;33.67;16.77;;;;;;;3.66;56.68;101095.41;1824222;78;21545;-72
2021/03/09 09:48:41;;;;;;;28.40;13.58;;;;;;;3.58;56.43;101097.27;1820097;78;21139;-73
2021/03/09 09:51:19;;;;;;;29.75;13.38;;;;;;;3.62;56.13;101095.25;1791996;78;21226;-73
2021/03/09 09:53:48;;;;;;;30.05;12.50;;;;;;;3.69;55.91;101099.98;1791916;80;21120;-73
2021/03/09 09:56:22;;;;;;;32.75;15.35;;;;;;;3.74;55.74;101100.96;1791744;78;22249;-72
2021/03/09 09:59:00;;;;;;;24.12;12.25;;;;;;;3.77;55.51;101103.38;1791642;80;21160;-72
2021/03/09 10:01:39;;;;;;;26.80;11.70;;;;;;;3.76;55.31;101095.97;1793981;78;21151;-73
2021/03/09 10:06:52;;;;;;;35.20;18.37;;;;;;;3.98;54.92;101100.52;1851715;77;22592;-72
2021/03/09 10:09:24;;;;;;;36.38;17.45;;;;;;;3.96;54.77;101101.12;1780891;80;21608;-72
2021/03/09 10:11:57;;;;;;;29.95;14.30;;;;;;;4.03;54.63;101095.77;1754653;81;22172;-72
2021/03/09 10:14:28;;;;;;;31.50;14.78;;;;;;;4.08;54.41;101099.40;1728994;82;21198;-72
2021/03/09 10:19:37;;;;;;;32.60;15.50;;;;;;;4.40;54.12;101100.02;1664487;84;21157;-73
2021/03/09 10:22:03;;;;;;;35.35;16.37;;;;;;;4.48;53.94;101097.67;1663262;85;21152;-73
2021/03/09 10:24:31;;;;;;;37.20;15.53;;;;;;;4.46;53.78;101094.31;1662989;86;21200;-72
2021/03/09 10:26:59;;;;;;;42.08;23.47;;;;;;;4.43;53.58;101090.55;1661692;83;21221;-72
2021/03/09 10:29:28;;;;;;;40.80;20.55;;;;;;;4.28;53.42;101085.11;1661312;86;21185;-73
2021/03/09 10:31:58;;;;;;;36.07;16.27;;;;;;;4.22;53.30;101080.25;1661092;86;21173;-72
2021/03/09 10:34:48;;;;;;;34.70;14.05;;;;;;;4.18;53.11;101086.73;1658899;85;21617;-72
2021/03/09 10:37:16;;;;;;;28.87;14.43;;;;;;;4.17;53.00;101085.52;1641818;86;22220;-72
2021/03/09 10:39:56;;;;;;;33.80;15.98;;;;;;;4.00;52.86;101089.39;1641655;86;21191;-72
2021/03/09 10:42:33;;;;;;;51.15;22.58;;;;;;;3.93;52.76;101089.47;1636613;86;21644;-72
2021/03/09 10:45:19;;;;;;;41.53;20.57;;;;;;;3.89;52.68;101086.68;1659021;86;21152;-73
2021/03/09 10:47:59;;;;;;;78.35;37.73;;;;;;;3.88;52.61;101087.63;1620001;87;21169;-73
2021/03/09 10:50:29;;;;;;;;;;;;;;;3.98;52.57;101092.60;1634351;87;21184;-73
2021/03/09 10:53:07;;;;;;;35.45;15.72;;;;;;;3.92;52.42;101087.30;1798436;77;22725;-72
2021/03/09 10:55:33;;;;;;;47.65;20.12;;;;;;;3.79;52.35;101081.23;1765938;80;21155;-73
2021/03/09 10:57:59;;;;;;;47.70;19.02;;;;;;;3.70;52.25;101078.39;1757222;80;21152;-72
2021/03/09 11:00:27;;;;;;;33.73;16.02;;;;;;;3.59;52.18;101077.83;1779286;78;21180;-72
2021/03/09 11:02:53;;;;;;;43.42;19.65;;;;;;;3.55;52.03;101077.70;1785821;80;21034;-72
2021/03/09 11:05:19;;;;;;;41.25;16.52;;;;;;;3.53;51.94;101072.53;1720629;81;21647;-72
2021/03/09 11:07:46;;;;;;;40.17;16.93;;;;;;;3.51;51.87;101075.77;1711549;83;21572;-72
2021/03/09 11:10:14;;;;;;;52.90;20.57;;;;;;;3.48;51.77;101069.36;1727193;81;22038;-72
2021/03/09 11:12:40;;;;;;;45.20;20.40;;;;;;;3.46;51.70;101069.11;1695696;83;21172;-72
2021/03/09 11:15:07;;;;;;;54.80;21.48;;;;;;;3.57;51.64;101070.98;1695588;84;21609;-72
2021/03/09 11:17:33;;;;;;;28.30;12.00;;;;;;;3.63;51.53;101071.86;1695739;84;21205;-72
2021/03/09 11:20:00;;;;;;;28.98;12.58;;;;;;;3.61;51.43;101065.87;1694287;83;21197;-71
2021/03/09 11:22:26;;;;;;;29.85;13.13;;;;;;;3.57;51.32;101073.63;1723366;81;21265;-72
2021/03/09 11:24:53;;;;;;;36.63;14.53;;;;;;;3.51;51.20;101068.33;1709676;83;21187;-72
2021/03/09 11:27:19;;;;;;;41.55;19.37;;;;;;;3.49;51.14;101063.14;1695183;84;21219;-72
2021/03/09 11:29:45;;;;;;;40.00;18.92;;;;;;;3.49;51.03;101063.61;1695570;84;21553;-71